• Join FlightAware (Why Join?)
  • Login
  • US Flag 
11:42AM EST


 

Airport Tracker/Info


-or-


 

Live Flight TrackerFlight Track Log ✈ JA-01AN ✈ 18-Aug-2012 ✈ RJBB / KIX - ROIG / ISG

Flight Track Log - Related Links

Times and Time Zones

All times are in EDT time to prevent confusion due to time zone crossing. See the JA-01AN flight status page for this flight to view local times or setup timezone preferences in your user account.

Time Position Orientation Groundspeed Altitude Reporting Facility
EDT Latitude Longitude Course Direction KTS MPH feet Rate Location/Type
01:31AM 31.8901 132.1390 225° Southwest  Level Estimated
01:32AM 31.8042 132.0385 225° Southwest  Level Estimated
01:33AM 31.7183 131.9382 225° Southwest  Level Estimated
01:34AM 31.6323 131.8381 225° Southwest  Level Estimated
01:35AM 31.5462 131.7382 225° Southwest  Level Estimated
01:36AM 31.4600 131.6385 225° Southwest  Level Estimated
01:37AM 31.3737 131.5389 225° Southwest  Level Estimated
01:38AM 31.2874 131.4395 224° Southwest  Level Estimated
01:39AM 31.2010 131.3404 224° Southwest  Level Estimated
01:40AM 31.1145 131.2414 224° Southwest  Level Estimated
01:41AM 31.0280 131.1425 224° Southwest  Level Estimated
01:42AM 30.9413 131.0439 224° Southwest  Level Estimated
01:43AM 30.8546 130.9454 224° Southwest  Level Estimated
01:44AM 30.7678 130.8471 224° Southwest  Level Estimated
01:45AM 30.6810 130.7490 224° Southwest  Level Estimated
01:46AM 30.5940 130.6511 224° Southwest  Level Estimated
01:47AM 30.5070 130.5533 224° Southwest  Level Estimated
01:48AM 30.4200 130.4558 224° Southwest  Level Estimated
01:49AM 30.3328 130.3584 224° Southwest  Level Estimated
01:50AM 30.2456 130.2611 224° Southwest  Level Estimated
01:51AM 30.1583 130.1640 224° Southwest  Level Estimated
01:52AM 30.0709 130.0672 224° Southwest  Level Estimated
01:53AM 29.9835 129.9704 224° Southwest  Level Estimated
01:54AM 29.8960 129.8739 224° Southwest  Level Estimated
01:55AM 29.8084 129.7775 224° Southwest  Level Estimated
01:56AM 29.7208 129.6813 224° Southwest  Level Estimated
01:57AM 29.6331 129.5853 224° Southwest  Level Estimated
01:58AM 29.5453 129.4894 223° Southwest  Level Estimated
01:59AM 29.4574 129.3937 223° Southwest  Level Estimated
02:00AM 29.3695 129.2981 223° Southwest  Level Estimated
02:01AM 29.2815 129.2027 223° Southwest  Level Estimated
02:02AM 29.1935 129.1075 223° Southwest  Level Estimated
02:03AM 29.1053 129.0125 223° Southwest  Level Estimated
02:04AM 29.0171 128.9176 223° Southwest  Level Estimated
02:05AM 28.9289 128.8229 223° Southwest  Level Estimated
02:06AM 28.8406 128.7283 223° Southwest  Level Estimated
02:07AM 28.7522 128.6339 223° Southwest  Level Estimated
02:08AM 28.6637 128.5396 223° Southwest  Level Estimated
02:09AM 28.5752 128.4455 223° Southwest  Level Estimated
02:10AM 28.4866 128.3516 223° Southwest  Level Estimated
02:11AM 28.3979 128.2578 223° Southwest  Level Estimated
02:12AM 28.3092 128.1642 223° Southwest  Level Estimated
02:13AM 28.2205 128.0708 223° Southwest  Level Estimated
02:14AM 28.1316 127.9775 223° Southwest  Level Estimated
02:15AM 28.0427 127.8843 223° Southwest  Level Estimated
02:16AM 27.9538 127.7913 223° Southwest  Level Estimated
02:17AM 27.8647 127.6985 223° Southwest  Level Estimated
02:18AM 27.7756 127.6058 223° Southwest  Level Estimated
02:19AM 27.6865 127.5133 223° Southwest  Level Estimated
02:20AM 27.5973 127.4209 223° Southwest  Level Estimated
02:21AM 27.5080 127.3286 222° Southwest  Level Estimated
02:22AM 27.4186 127.2365 222° Southwest  Level Estimated
02:23AM 27.3293 127.1446 222° Southwest  Level Estimated
02:24AM 27.2398 127.0528 222° Southwest  Level Estimated
02:25AM 27.1503 126.9612 222° Southwest  Level Estimated
02:26AM 27.0607 126.8697 222° Southwest  Level Estimated
02:27AM 26.9711 126.7783 222° Southwest  Level Estimated
02:28AM 26.8814 126.6871 222° Southwest  Level Estimated
02:29AM 26.7916 126.5961 222° Southwest  Level Estimated
02:30AM 26.7018 126.5052 222° Southwest  Level Estimated
02:31AM 26.6119 126.4144 222° Southwest  Level Estimated
02:32AM 26.5220 126.3238 222° Southwest  Level Estimated
02:33AM 26.4320 126.2333 222° Southwest  Level Estimated
02:34AM 26.3420 126.1429 222° Southwest  Level Estimated
02:35AM 26.2519 126.0527 222° Southwest  Level Estimated
02:36AM 26.1617 125.9626 222° Southwest  Level Estimated
02:37AM 26.0715 125.8727 222° Southwest  Level Estimated
02:38AM 25.9813 125.7829 222° Southwest  Level Estimated
02:39AM 25.8909 125.6933 222° Southwest  Level Estimated
02:40AM 25.8006 125.6038 222° Southwest  Level Estimated
02:41AM 25.7101 125.5144 222° Southwest  Level Estimated
02:42AM 25.6196 125.4251 222° Southwest  Level Estimated
02:43AM 25.5291 125.3360 222° Southwest  Level Estimated
02:44AM 25.4385 125.2471 222° Southwest  Level Estimated
02:45AM 25.3479 125.1582 222° Southwest  Level Estimated
02:46AM 25.2572 125.0695 221° Southwest  Level Estimated
02:47AM 25.1664 124.9810 221° Southwest  Level Estimated
02:48AM 25.0756 124.8925 221° Southwest  Level Estimated
02:49AM 24.9848 124.8042 221° Southwest  Level Estimated
02:50AM 24.8939 124.7160 221° Southwest  Level Estimated
02:51AM 24.8029 124.6280 221° Southwest  Level Estimated
02:52AM 24.7119 124.5401 221° Southwest  Level Estimated
02:53AM 24.6208 124.4523 221° Southwest  Level Estimated
02:54AM 24.5297 124.3646 221° Southwest  Level Estimated
02:55AM 24.4385 124.2771 221° Southwest  Level Estimated
02:56AM 24.3473 124.1897 221° Southwest  Level Estimated
02:57AM 24.2561 124.1023 41° Northeast  Level Estimated
02:58AM 24.3473 124.1897 221° Southwest  Level Estimated
02:59AM 24.2561 124.1023 41° Northeast  Level Estimated
03:00AM 24.3473 124.1897 221° Southwest  Level Estimated
03:01AM 24.2561 124.1023 41° Northeast  Level Estimated
03:02AM 24.3473 124.1897 221° Southwest  Level Estimated
03:03AM 24.2561 124.1023 41° Northeast  Level Estimated
03:04AM 24.3473 124.1897 221° Southwest  Level Estimated
03:05AM 24.2561 124.1023 41° Northeast  Level Estimated
03:06AM 24.3473 124.1897 221° Southwest  Level Estimated
03:07AM 24.2561 124.1023 41° Northeast  Level Estimated
03:08AM 24.3473 124.1897 221° Southwest  Level Estimated
03:09AM 24.2561 124.1023 41° Northeast  Level Estimated
03:10AM 24.3473 124.1897 41° Northeast  Level Estimated